createdAt,value
2023-01-21T00:01:42.256Z,101069.38
2023-01-21T00:04:11.059Z,101068.38
2023-01-21T00:06:38.856Z,101077.47
2023-01-21T00:09:07.788Z,101080.47
2023-01-21T00:11:35.494Z,101072.88
2023-01-21T00:14:02.969Z,101077.06
2023-01-21T00:16:30.448Z,101075.44
2023-01-21T00:18:58.439Z,101075.44
2023-01-21T00:21:26.084Z,101087.38
2023-01-21T00:23:53.726Z,101087.53
2023-01-21T00:26:22.516Z,101086.66
2023-01-21T00:28:49.974Z,101087.81
2023-01-21T00:31:17.703Z,101095.00
2023-01-21T00:33:45.327Z,101098.88
2023-01-21T00:36:14.618Z,101102.03
2023-01-21T00:38:42.297Z,101106.34
2023-01-21T00:41:11.681Z,101103.09
2023-01-21T00:43:41.114Z,101100.66
2023-01-21T00:46:09.281Z,101107.28
2023-01-21T00:48:37.687Z,101105.19
2023-01-21T00:51:05.279Z,101109.44
2023-01-21T00:53:36.786Z,101111.75
2023-01-21T00:56:06.607Z,101111.47
2023-01-21T00:58:34.364Z,101117.63
2023-01-21T01:01:04.411Z,101117.47
2023-01-21T01:03:32.490Z,101119.88
2023-01-21T01:06:04.096Z,101127.31
2023-01-21T01:08:32.120Z,101134.03
2023-01-21T01:10:59.603Z,101133.66
2023-01-21T01:13:27.579Z,101139.03
2023-01-21T01:15:56.099Z,101135.88
2023-01-21T01:18:26.084Z,101143.38
2023-01-21T01:20:53.798Z,101145.53
2023-01-21T01:23:21.461Z,101146.06
2023-01-21T01:25:56.085Z,101157.09
2023-01-21T01:28:24.014Z,101150.75
2023-01-21T01:30:51.971Z,101156.66
2023-01-21T01:33:20.162Z,101154.50
2023-01-21T01:35:49.403Z,101159.41
2023-01-21T01:38:19.942Z,101155.25
2023-01-21T01:40:47.772Z,101169.91
2023-01-21T01:43:17.646Z,101172.34
2023-01-21T01:45:45.357Z,101176.63
2023-01-21T01:48:15.717Z,101181.06
2023-01-21T01:50:43.838Z,101181.09
2023-01-21T01:53:13.596Z,101183.78
2023-01-21T01:55:41.111Z,101189.69
2023-01-21T01:58:11.825Z,101179.88
2023-01-21T02:00:39.767Z,101187.00
2023-01-21T02:03:25.408Z,101191.41
2023-01-21T02:05:53.675Z,101188.59
2023-01-21T02:08:23.323Z,101205.41
2023-01-21T02:10:51.483Z,101197.34
2023-01-21T02:13:19.044Z,101201.06
2023-01-21T02:15:53.079Z,101201.06
2023-01-21T02:18:27.908Z,101210.66
2023-01-21T02:21:43.655Z,101220.47
2023-01-21T02:24:48.051Z,101211.63
2023-01-21T02:27:48.497Z,101225.75
2023-01-21T02:30:37.350Z,101232.25
2023-01-21T02:33:31.212Z,101225.59
2023-01-21T02:36:06.763Z,101233.56
2023-01-21T02:38:40.120Z,101233.19
2023-01-21T02:41:14.880Z,101238.28
2023-01-21T02:43:47.946Z,101237.03
2023-01-21T02:46:16.798Z,101235.63
2023-01-21T02:48:49.151Z,101235.81
2023-01-21T02:51:19.497Z,101235.59
2023-01-21T02:53:47.086Z,101234.53
2023-01-21T02:56:17.031Z,101246.91
2023-01-21T02:58:47.997Z,101247.59
2023-01-21T03:01:25.669Z,101243.41
2023-01-21T03:04:13.201Z,101238.84
2023-01-21T03:06:51.532Z,101244.28
2023-01-21T03:09:22.666Z,101252.88
2023-01-21T03:11:59.953Z,101253.44
2023-01-21T03:14:54.551Z,101253.06
2023-01-21T03:17:25.404Z,101248.16
2023-01-21T03:19:59.066Z,101256.84
2023-01-21T03:22:29.453Z,101260.03
2023-01-21T03:24:57.932Z,101263.28
2023-01-21T03:27:27.724Z,101266.84
2023-01-21T03:29:58.480Z,101269.19
2023-01-21T03:32:27.833Z,101271.81
2023-01-21T03:34:57.872Z,101270.31
2023-01-21T03:37:30.356Z,101273.97
2023-01-21T03:40:04.443Z,101273.97
2023-01-21T03:42:32.225Z,101278.13
2023-01-21T03:44:59.912Z,101279.72
2023-01-21T03:47:31.426Z,101271.16
2023-01-21T03:50:02.189Z,101270.41
2023-01-21T03:52:29.806Z,101269.06
2023-01-21T03:54:57.396Z,101274.47
2023-01-21T03:57:24.853Z,101277.75
2023-01-21T03:59:52.303Z,101270.03
2023-01-21T04:02:21.041Z,101278.63
2023-01-21T04:04:48.771Z,101278.69
2023-01-21T04:07:17.681Z,101265.81
2023-01-21T04:09:45.351Z,101270.88
2023-01-21T04:12:13.499Z,101277.19
2023-01-21T04:14:40.988Z,101269.44
2023-01-21T04:17:08.492Z,101279.00
2023-01-21T04:19:35.992Z,101288.72
2023-01-21T04:22:03.934Z,101290.78
2023-01-21T04:24:34.671Z,101292.31
2023-01-21T04:27:02.338Z,101296.63
2023-01-21T04:29:29.819Z,101295.75
2023-01-21T04:31:57.315Z,101299.78
2023-01-21T04:34:24.792Z,101305.44
2023-01-21T04:36:52.280Z,101302.75
2023-01-21T04:39:19.730Z,101303.41
2023-01-21T04:41:48.549Z,101308.19
2023-01-21T04:44:16.026Z,101309.78
2023-01-21T04:46:43.795Z,101306.34
2023-01-21T04:49:11.254Z,101305.00
2023-01-21T04:51:38.731Z,101311.53
2023-01-21T04:54:06.254Z,101308.13
2023-01-21T04:56:33.703Z,101313.38
2023-01-21T04:59:02.484Z,101320.41
2023-01-21T05:01:30.024Z,101320.38
2023-01-21T05:03:57.553Z,101313.81
2023-01-21T05:06:25.090Z,101315.94
2023-01-21T05:08:52.621Z,101320.88
2023-01-21T05:11:21.122Z,101320.88
2023-01-21T05:13:48.637Z,101319.50
2023-01-21T05:16:17.440Z,101319.38
2023-01-21T05:18:46.705Z,101320.66
2023-01-21T05:21:14.350Z,101320.63
2023-01-21T05:23:41.812Z,101328.91
2023-01-21T05:26:09.254Z,101334.38
2023-01-21T05:28:36.872Z,101344.31
2023-01-21T05:31:05.113Z,101338.50
2023-01-21T05:33:34.912Z,101345.88
2023-01-21T05:36:04.574Z,101359.25
2023-01-21T05:38:32.119Z,101359.47
2023-01-21T05:40:59.677Z,101356.34
2023-01-21T05:43:27.323Z,101361.28
2023-01-21T05:45:55.026Z,101369.06
2023-01-21T05:48:22.708Z,101375.59
2023-01-21T05:50:51.628Z,101377.78
2023-01-21T05:53:20.261Z,101371.38
2023-01-21T05:55:47.928Z,101377.22
2023-01-21T05:58:15.667Z,101376.44
2023-01-21T06:00:43.110Z,101382.63
2023-01-21T06:03:10.582Z,101379.56
2023-01-21T06:05:38.031Z,101380.09
2023-01-21T06:08:06.942Z,101373.50
2023-01-21T06:10:34.688Z,101379.53
2023-01-21T06:13:02.256Z,101377.94
2023-01-21T06:15:29.815Z,101371.97
2023-01-21T06:17:57.338Z,101381.84
2023-01-21T06:20:24.773Z,101376.91
2023-01-21T06:22:52.259Z,101378.09
2023-01-21T06:25:21.022Z,101385.06
2023-01-21T06:27:48.496Z,101390.59
2023-01-21T06:30:16.747Z,101387.31
2023-01-21T06:32:44.315Z,101392.13
2023-01-21T06:35:11.789Z,101400.22
2023-01-21T06:37:39.267Z,101400.78
2023-01-21T06:40:08.419Z,101402.13
2023-01-21T06:42:37.219Z,101393.59
2023-01-21T06:45:05.264Z,101387.97
2023-01-21T06:47:32.757Z,101400.81
2023-01-21T06:50:00.316Z,101398.44
2023-01-21T06:52:27.814Z,101395.63
2023-01-21T06:54:55.246Z,101402.66
2023-01-21T06:57:22.743Z,101399.63
2023-01-21T06:59:51.561Z,101406.03
2023-01-21T07:02:19.037Z,101417.59
2023-01-21T07:04:48.274Z,101415.16
2023-01-21T07:07:15.825Z,101423.56
2023-01-21T07:09:43.258Z,101415.25
2023-01-21T07:12:10.771Z,101427.72
2023-01-21T07:14:38.221Z,101433.88
2023-01-21T07:17:06.985Z,101430.63
2023-01-21T07:19:34.449Z,101443.81
2023-01-21T07:22:01.921Z,101440.34
2023-01-21T07:24:29.419Z,101434.19
2023-01-21T07:26:57.119Z,101434.38
2023-01-21T07:29:24.596Z,101443.97
2023-01-21T07:31:52.419Z,101447.63
2023-01-21T07:34:21.220Z,101451.84
2023-01-21T07:36:48.706Z,101447.97
2023-01-21T07:39:16.156Z,101443.97
2023-01-21T07:41:43.622Z,101454.06
2023-01-21T07:44:11.290Z,101456.97
2023-01-21T07:46:38.817Z,101451.13
2023-01-21T07:49:06.335Z,101460.34
2023-01-21T07:51:35.103Z,101460.69
2023-01-21T07:54:02.577Z,101462.28
2023-01-21T07:56:30.041Z,101462.50
2023-01-21T07:58:57.519Z,101461.88
2023-01-21T08:01:26.977Z,101467.25
2023-01-21T08:03:54.483Z,101464.06
2023-01-21T08:06:21.934Z,101461.41
2023-01-21T08:08:50.758Z,101464.28
2023-01-21T08:11:18.214Z,101459.03
2023-01-21T08:13:45.699Z,101446.41
2023-01-21T08:16:13.641Z,101454.84
2023-01-21T08:18:41.433Z,101450.06
2023-01-21T08:21:09.113Z,101449.56
2023-01-21T08:23:36.739Z,101454.06
2023-01-21T08:26:06.656Z,101455.25
2023-01-21T08:28:34.793Z,101455.78
2023-01-21T08:31:06.992Z,101449.56
2023-01-21T08:33:34.845Z,101446.56
2023-01-21T08:36:02.444Z,101448.53
2023-01-21T08:38:31.196Z,101456.19
2023-01-21T08:40:59.610Z,101448.50
2023-01-21T08:43:28.659Z,101441.63
2023-01-21T08:45:56.973Z,101448.31
2023-01-21T08:48:24.691Z,101445.56
2023-01-21T08:50:52.212Z,101447.69
2023-01-21T08:53:19.774Z,101441.78
2023-01-21T08:55:47.315Z,101433.00
2023-01-21T08:58:14.795Z,101438.63
2023-01-21T09:00:44.825Z,101448.25
2023-01-21T09:03:13.661Z,101456.47
2023-01-21T09:05:41.377Z,101452.34
2023-01-21T09:08:09.098Z,101449.91
2023-01-21T09:10:54.069Z,101464.03
2023-01-21T09:13:21.591Z,101452.31
2023-01-21T09:15:50.793Z,101459.53
2023-01-21T09:18:18.281Z,101464.09
2023-01-21T09:20:45.836Z,101466.97
2023-01-21T09:23:25.444Z,101466.47
2023-01-21T09:25:53.332Z,101475.84
2023-01-21T09:28:21.890Z,101471.03
2023-01-21T09:30:50.852Z,101474.56
2023-01-21T09:33:18.610Z,101480.00
2023-01-21T09:35:46.242Z,101480.41
2023-01-21T09:38:13.964Z,101481.72
2023-01-21T09:40:45.744Z,101484.00
2023-01-21T09:43:18.552Z,101482.81
2023-01-21T09:45:46.978Z,101495.53
2023-01-21T09:48:17.721Z,101498.88
2023-01-21T09:50:47.668Z,101498.94
2023-01-21T09:53:27.617Z,101497.53
2023-01-21T09:55:58.792Z,101496.53
2023-01-21T09:58:29.358Z,101496.72
2023-01-21T10:00:58.953Z,101498.78
2023-01-21T10:03:34.441Z,101500.28
2023-01-21T10:06:12.462Z,101496.50
2023-01-21T10:09:01.233Z,101505.72
2023-01-21T10:11:39.424Z,101510.97
2023-01-21T10:14:26.370Z,101501.94
2023-01-21T10:16:58.536Z,101506.44
2023-01-21T10:19:34.178Z,101498.72
2023-01-21T10:22:05.014Z,101502.91
2023-01-21T10:24:36.914Z,101500.13
2023-01-21T10:27:09.278Z,101506.53
2023-01-21T10:29:39.258Z,101501.28
2023-01-21T10:32:08.497Z,101503.66
2023-01-21T10:34:41.247Z,101505.00
2023-01-21T10:37:16.495Z,101501.72
2023-01-21T10:39:50.428Z,101505.69
2023-01-21T10:42:41.202Z,101509.34
2023-01-21T10:45:19.064Z,101516.06
2023-01-21T10:47:51.148Z,101506.41
2023-01-21T10:50:31.039Z,101504.59
2023-01-21T10:53:02.207Z,101507.00
2023-01-21T10:55:37.480Z,101506.53
2023-01-21T10:58:11.336Z,101502.38
2023-01-21T11:00:43.010Z,101506.75
2023-01-21T11:03:14.489Z,101510.56
2023-01-21T11:05:44.176Z,101499.44
2023-01-21T11:08:16.590Z,101511.28
2023-01-21T11:10:44.319Z,101499.22
2023-01-21T11:13:13.123Z,101493.88
2023-01-21T11:15:46.058Z,101492.97
2023-01-21T11:18:27.114Z,101498.03
2023-01-21T11:20:57.604Z,101501.34
2023-01-21T11:23:28.229Z,101503.69
2023-01-21T11:26:02.232Z,101494.59
2023-01-21T11:28:31.442Z,101498.75
2023-01-21T11:31:08.291Z,101496.19
2023-01-21T11:33:36.782Z,101502.59
2023-01-21T11:36:14.275Z,101503.81
2023-01-21T11:38:42.292Z,101499.69
2023-01-21T11:41:21.568Z,101504.59
2023-01-21T11:43:52.225Z,101497.75
2023-01-21T11:46:31.546Z,101496.59
2023-01-21T11:49:27.072Z,101495.66
2023-01-21T11:52:16.018Z,101496.16
2023-01-21T11:54:43.576Z,101493.63
2023-01-21T11:57:27.379Z,101492.09
2023-01-21T12:00:00.352Z,101491.13
2023-01-21T12:02:30.359Z,101489.63
2023-01-21T12:05:00.526Z,101500.25
2023-01-21T12:07:31.456Z,101487.00
2023-01-21T12:10:04.950Z,101491.34
2023-01-21T12:12:41.419Z,101484.19
2023-01-21T12:15:22.083Z,101480.09
2023-01-21T12:17:54.678Z,101474.19
2023-01-21T12:20:26.995Z,101481.88
2023-01-21T12:23:15.274Z,101461.69
2023-01-21T12:25:46.978Z,101473.88
2023-01-21T12:28:25.880Z,101456.69
2023-01-21T12:31:01.688Z,101457.44
2023-01-21T12:33:41.356Z,101450.72
2023-01-21T12:36:14.055Z,101448.75
2023-01-21T12:38:46.059Z,101463.09
2023-01-21T12:41:16.005Z,101451.75
2023-01-21T12:43:46.446Z,101448.31
2023-01-21T12:46:17.151Z,101444.78
2023-01-21T12:48:47.827Z,101444.22
2023-01-21T12:51:19.736Z,101440.66
2023-01-21T12:53:53.328Z,101439.84
2023-01-21T12:56:25.043Z,101432.38
2023-01-21T12:58:56.015Z,101437.19
2023-01-21T13:01:37.173Z,101435.63
2023-01-21T13:04:07.923Z,101442.09
2023-01-21T13:06:53.112Z,101445.03
2023-01-21T13:09:28.689Z,101440.31
2023-01-21T13:11:59.175Z,101440.34
2023-01-21T13:14:29.519Z,101445.03
2023-01-21T13:16:59.118Z,101445.22
2023-01-21T13:19:26.584Z,101444.13
2023-01-21T13:21:59.899Z,101444.63
2023-01-21T13:24:33.636Z,101430.41
2023-01-21T13:27:08.376Z,101436.38
2023-01-21T13:29:42.154Z,101441.13
2023-01-21T13:32:17.719Z,101442.47
2023-01-21T13:34:52.149Z,101432.03
2023-01-21T13:37:24.772Z,101449.13
2023-01-21T13:40:09.714Z,101442.09
2023-01-21T13:42:41.885Z,101431.84
2023-01-21T13:45:28.620Z,101444.53
2023-01-21T13:48:06.612Z,101450.75
2023-01-21T13:50:49.275Z,101450.31
2023-01-21T13:53:44.647Z,101448.66
2023-01-21T13:56:27.997Z,101443.47
2023-01-21T13:58:57.549Z,101445.84
2023-01-21T14:01:27.215Z,101447.25
2023-01-21T14:03:58.586Z,101439.28
2023-01-21T14:06:28.502Z,101435.75
2023-01-21T14:08:58.794Z,101437.41
2023-01-21T14:11:30.915Z,101438.41
2023-01-21T14:14:30.667Z,101432.59
2023-01-21T14:17:24.763Z,101433.66
2023-01-21T14:20:08.039Z,101435.13
2023-01-21T14:22:39.089Z,101429.81
2023-01-21T14:25:16.774Z,101426.88
2023-01-21T14:27:54.499Z,101414.53
2023-01-21T14:30:25.677Z,101420.53
2023-01-21T14:32:56.016Z,101423.63
2023-01-21T14:35:28.199Z,101419.59
2023-01-21T14:37:58.117Z,101418.38
2023-01-21T14:40:28.977Z,101414.53
2023-01-21T14:42:57.834Z,101417.66
2023-01-21T14:45:51.984Z,101410.78
2023-01-21T14:48:30.238Z,101419.72
2023-01-21T14:51:11.174Z,101431.16
2023-01-21T14:53:44.575Z,101432.59
2023-01-21T14:56:18.758Z,101433.34
2023-01-21T14:58:48.967Z,101428.59
2023-01-21T15:01:27.848Z,101431.91
2023-01-21T15:03:56.528Z,101411.69
2023-01-21T15:06:24.683Z,101420.59
2023-01-21T15:08:53.712Z,101416.41
2023-01-21T15:11:22.367Z,101422.50
2023-01-21T15:14:02.216Z,101422.47
2023-01-21T15:16:34.549Z,101428.19
2023-01-21T15:19:24.523Z,101424.19
2023-01-21T15:22:29.526Z,101426.16
2023-01-21T15:25:31.463Z,101416.41
2023-01-21T15:28:43.636Z,101434.28
2023-01-21T15:31:16.617Z,101424.88
2023-01-21T15:33:49.497Z,101428.16
2023-01-21T15:36:24.235Z,101425.06
2023-01-21T15:38:53.933Z,101418.22
2023-01-21T15:41:27.764Z,101426.28
2023-01-21T15:44:07.959Z,101425.06
2023-01-21T15:46:43.497Z,101422.00
2023-01-21T15:49:20.425Z,101420.03
2023-01-21T15:51:55.001Z,101421.44
2023-01-21T15:54:31.525Z,101417.13
2023-01-21T15:57:11.336Z,101414.38
2023-01-21T15:59:58.889Z,101414.88
2023-01-21T16:02:31.729Z,101415.50
2023-01-21T16:05:07.555Z,101417.63
2023-01-21T16:07:42.358Z,101407.81
2023-01-21T16:10:16.833Z,101404.81
2023-01-21T16:12:51.627Z,101399.66
2023-01-21T16:15:25.481Z,101403.78
2023-01-21T16:18:11.079Z,101399.34
2023-01-21T16:20:43.457Z,101397.44
2023-01-21T16:23:10.956Z,101405.41
2023-01-21T16:25:46.398Z,101410.34
2023-01-21T16:28:14.104Z,101398.44
2023-01-21T16:30:41.749Z,101404.09
2023-01-21T16:33:12.432Z,101407.94
2023-01-21T16:35:47.605Z,101402.06
2023-01-21T16:38:16.622Z,101408.09
2023-01-21T16:40:44.077Z,101406.88
2023-01-21T16:43:23.877Z,101406.19
2023-01-21T16:45:53.719Z,101405.91
2023-01-21T16:48:27.088Z,101393.66
2023-01-21T16:50:55.259Z,101403.81
2023-01-21T16:53:24.771Z,101402.50
2023-01-21T16:55:54.540Z,101404.53
2023-01-21T16:58:26.217Z,101403.41
2023-01-21T17:01:03.930Z,101398.91
2023-01-21T17:03:34.701Z,101391.44
2023-01-21T17:06:12.768Z,101376.97
2023-01-21T17:08:40.944Z,101364.41
2023-01-21T17:11:10.138Z,101367.41
2023-01-21T17:13:40.200Z,101385.38
2023-01-21T17:16:13.893Z,101380.31
2023-01-21T17:18:44.428Z,101376.81
2023-01-21T17:21:14.381Z,101378.19
2023-01-21T17:23:47.674Z,101375.75
2023-01-21T17:26:18.522Z,101379.31
2023-01-21T17:28:47.628Z,101382.00
2023-01-21T17:31:24.298Z,101385.34
2023-01-21T17:34:04.263Z,101378.53
2023-01-21T17:36:33.489Z,101380.06
2023-01-21T17:39:01.151Z,101383.72
2023-01-21T17:41:31.856Z,101377.78
2023-01-21T17:44:00.370Z,101395.38
2023-01-21T17:46:28.101Z,101383.81
2023-01-21T17:48:57.691Z,101382.84
2023-01-21T17:51:28.750Z,101383.00
2023-01-21T17:53:58.913Z,101391.59
2023-01-21T17:56:38.875Z,101383.75
2023-01-21T17:59:28.974Z,101387.13
2023-01-21T18:01:56.594Z,101383.72
2023-01-21T18:04:24.231Z,101360.44
2023-01-21T18:06:54.453Z,101371.72
2023-01-21T18:09:23.938Z,101359.69
2023-01-21T18:11:53.621Z,101353.16
2023-01-21T18:14:23.850Z,101334.09
2023-01-21T18:16:53.427Z,101349.88
2023-01-21T18:19:29.447Z,101360.50
2023-01-21T18:21:58.605Z,101359.94
2023-01-21T18:24:26.629Z,101353.66
2023-01-21T18:26:55.728Z,101361.25
2023-01-21T18:29:23.343Z,101356.16
2023-01-21T18:31:52.287Z,101350.91
2023-01-21T18:34:20.534Z,101363.47
2023-01-21T18:36:47.995Z,101348.03
2023-01-21T18:39:18.442Z,101343.91
2023-01-21T18:41:46.802Z,101341.06
2023-01-21T18:44:15.241Z,101332.34
2023-01-21T18:46:43.396Z,101339.63
2023-01-21T18:49:15.113Z,101333.59
2023-01-21T18:51:42.567Z,101337.63
2023-01-21T18:54:10.742Z,101324.66
2023-01-21T18:56:40.226Z,101321.97
2023-01-21T18:59:12.874Z,101323.31
2023-01-21T19:01:40.555Z,101316.50
2023-01-21T19:04:09.760Z,101318.03
2023-01-21T19:06:37.516Z,101319.66
2023-01-21T19:09:05.216Z,101309.25
2023-01-21T19:11:32.717Z,101310.75
2023-01-21T19:14:01.933Z,101316.03
2023-01-21T19:16:29.436Z,101318.25
2023-01-21T19:18:58.186Z,101321.94
2023-01-21T19:21:25.688Z,101331.31
2023-01-21T19:23:54.144Z,101341.91
2023-01-21T19:26:22.108Z,101344.31
2023-01-21T19:28:49.633Z,101332.28
2023-01-21T19:31:18.524Z,101321.75
2023-01-21T19:33:47.086Z,101339.09
2023-01-21T19:36:16.603Z,101346.84
2023-01-21T19:38:46.425Z,101343.44
2023-01-21T19:41:15.009Z,101321.13
2023-01-21T19:43:42.723Z,101321.25
2023-01-21T19:46:11.334Z,101323.75
2023-01-21T19:48:40.662Z,101323.94
2023-01-21T19:51:08.478Z,101306.94
2023-01-21T19:53:36.038Z,101320.06
2023-01-21T19:56:05.170Z,101315.03
2023-01-21T19:58:33.112Z,101330.00
2023-01-21T20:01:00.714Z,101316.66
2023-01-21T20:03:30.422Z,101327.53
2023-01-21T20:06:03.004Z,101329.63
2023-01-21T20:08:31.431Z,101332.38
2023-01-21T20:10:58.912Z,101327.53
2023-01-21T20:13:31.089Z,101330.03
2023-01-21T20:16:02.552Z,101341.41
2023-01-21T20:18:32.461Z,101328.75
2023-01-21T20:21:01.406Z,101338.19
2023-01-21T20:23:31.022Z,101339.34
2023-01-21T20:25:59.672Z,101334.75
2023-01-21T20:28:28.595Z,101335.19
2023-01-21T20:30:56.150Z,101336.53
2023-01-21T20:33:26.349Z,101338.47
2023-01-21T20:35:55.274Z,101335.72
2023-01-21T20:38:26.676Z,101336.25
2023-01-21T20:40:54.345Z,101333.13
2023-01-21T20:43:21.811Z,101344.38
2023-01-21T20:45:50.212Z,101346.28
2023-01-21T20:48:20.192Z,101347.97
2023-01-21T20:50:48.278Z,101343.81
2023-01-21T20:53:15.838Z,101350.25
2023-01-21T20:55:46.548Z,101348.47
2023-01-21T20:58:14.754Z,101348.72
2023-01-21T21:00:42.496Z,101342.63
2023-01-21T21:03:10.064Z,101351.53
2023-01-21T21:05:37.693Z,101350.69
2023-01-21T21:08:05.709Z,101347.00
2023-01-21T21:10:36.047Z,101340.84
2023-01-21T21:13:05.305Z,101342.16
2023-01-21T21:15:34.415Z,101347.63
2023-01-21T21:18:03.159Z,101338.94
2023-01-21T21:20:32.774Z,101341.19
2023-01-21T21:23:00.265Z,101343.59
2023-01-21T21:25:29.467Z,101342.78
2023-01-21T21:27:57.402Z,101339.06
2023-01-21T21:30:28.126Z,101341.50
2023-01-21T21:32:57.513Z,101344.41
2023-01-21T21:35:27.486Z,101343.94
2023-01-21T21:37:56.220Z,101354.91
2023-01-21T21:40:25.291Z,101338.63
2023-01-21T21:43:19.262Z,101343.78
2023-01-21T21:46:06.079Z,101340.81
2023-01-21T21:48:39.579Z,101348.88
2023-01-21T21:51:07.992Z,101354.97
2023-01-21T21:53:35.551Z,101352.25
2023-01-21T21:56:04.212Z,101361.34
2023-01-21T21:58:31.693Z,101355.66
2023-01-21T22:01:08.973Z,101345.94
2023-01-21T22:03:36.505Z,101349.19
2023-01-21T22:06:04.375Z,101356.53
2023-01-21T22:08:32.582Z,101357.41
2023-01-21T22:11:00.612Z,101353.19
2023-01-21T22:13:29.099Z,101357.53
2023-01-21T22:15:57.102Z,101360.97
2023-01-21T22:18:26.605Z,101354.38
2023-01-21T22:21:00.516Z,101344.78
2023-01-21T22:23:28.215Z,101350.13
2023-01-21T22:25:56.149Z,101353.81
2023-01-21T22:28:23.631Z,101359.84
2023-01-21T22:30:51.177Z,101359.75
2023-01-21T22:33:21.125Z,101354.63
2023-01-21T22:35:49.919Z,101365.03
2023-01-21T22:38:17.400Z,101353.72
2023-01-21T22:40:44.873Z,101350.09
2023-01-21T22:43:12.802Z,101345.66
2023-01-21T22:45:41.323Z,101356.53
2023-01-21T22:48:08.861Z,101354.47
2023-01-21T22:50:36.348Z,101353.38
2023-01-21T22:53:05.174Z,101358.41
2023-01-21T22:55:32.646Z,101365.91
2023-01-21T22:58:00.128Z,101358.72
2023-01-21T23:00:36.591Z,101353.28
2023-01-21T23:03:05.165Z,101360.16
2023-01-21T23:05:33.222Z,101353.16
2023-01-21T23:08:00.835Z,101358.63
2023-01-21T23:10:29.708Z,101351.59
2023-01-21T23:12:57.182Z,101353.38
2023-01-21T23:15:24.831Z,101348.78
2023-01-21T23:17:52.799Z,101346.28
2023-01-21T23:20:20.638Z,101347.00
2023-01-21T23:22:48.174Z,101353.50
2023-01-21T23:25:15.924Z,101348.59
2023-01-21T23:27:46.077Z,101347.16
2023-01-21T23:30:14.345Z,101351.69
2023-01-21T23:32:41.913Z,101346.31
2023-01-21T23:35:10.108Z,101351.81
2023-01-21T23:37:38.519Z,101344.22
2023-01-21T23:40:07.411Z,101343.16
2023-01-21T23:42:34.917Z,101341.28
2023-01-21T23:45:04.008Z,101346.31
2023-01-21T23:47:31.535Z,101343.81
2023-01-21T23:49:59.131Z,101339.44
2023-01-21T23:52:26.631Z,101338.63
2023-01-21T23:54:54.550Z,101339.13
2023-01-21T23:57:22.032Z,101338.41
2023-01-21T23:59:49.711Z,101345.22
